createdAt,value
2017-11-22T00:02:23.289Z,99.90
2017-11-22T00:04:51.092Z,99.90
2017-11-22T00:07:19.058Z,99.90
2017-11-22T00:09:46.760Z,99.90
2017-11-22T00:12:14.439Z,99.90
2017-11-22T00:14:42.033Z,99.90
2017-11-22T00:17:09.595Z,99.90
2017-11-22T00:19:37.205Z,99.90
2017-11-22T00:22:04.738Z,99.90
2017-11-22T00:24:32.321Z,99.90
2017-11-22T00:26:59.885Z,99.90
2017-11-22T00:29:27.508Z,99.90
2017-11-22T00:31:56.487Z,99.90
2017-11-22T00:34:24.065Z,99.90
2017-11-22T00:36:52.418Z,99.90
2017-11-22T00:39:20.005Z,99.90
2017-11-22T00:41:48.353Z,99.90
2017-11-22T00:44:15.964Z,99.90
2017-11-22T00:46:44.288Z,99.90
2017-11-22T00:49:11.889Z,99.90
2017-11-22T00:51:39.498Z,99.90
2017-11-22T00:54:07.143Z,99.90
2017-11-22T00:56:35.460Z,99.90
2017-11-22T00:59:03.050Z,99.90
2017-11-22T01:01:30.631Z,99.90
2017-11-22T01:03:58.233Z,99.90
2017-11-22T01:06:25.828Z,99.90
2017-11-22T01:08:54.424Z,99.90
2017-11-22T01:11:22.031Z,99.90
2017-11-22T01:13:49.608Z,99.90
2017-11-22T01:16:17.183Z,99.90
2017-11-22T01:18:44.764Z,99.90
2017-11-22T01:21:12.344Z,99.90
2017-11-22T01:23:39.913Z,99.90
2017-11-22T01:26:07.498Z,99.90
2017-11-22T01:28:35.099Z,99.90
2017-11-22T01:31:02.693Z,99.90
2017-11-22T01:33:30.277Z,99.90
2017-11-22T01:35:57.869Z,99.90
2017-11-22T01:38:25.458Z,99.90
2017-11-22T01:40:53.821Z,99.90
2017-11-22T01:43:21.397Z,99.90
2017-11-22T01:45:49.783Z,99.90
2017-11-22T01:48:18.143Z,99.90
2017-11-22T01:50:45.715Z,99.90
2017-11-22T01:53:13.349Z,99.90
2017-11-22T01:55:40.931Z,99.90
2017-11-22T01:58:08.567Z,99.90
2017-11-22T02:00:57.055Z,99.90
2017-11-22T02:03:25.423Z,99.90
2017-11-22T02:05:53.012Z,99.90
2017-11-22T02:08:20.658Z,99.90
2017-11-22T02:10:48.256Z,99.90
2017-11-22T02:13:16.593Z,99.90
2017-11-22T02:15:44.163Z,99.90
2017-11-22T02:18:11.793Z,99.90
2017-11-22T02:20:39.389Z,99.90
2017-11-22T02:23:07.235Z,99.90
2017-11-22T02:25:35.062Z,99.90
2017-11-22T02:28:03.997Z,99.90
2017-11-22T02:30:31.565Z,99.90
2017-11-22T02:33:00.900Z,99.90
2017-11-22T02:35:28.485Z,99.90
2017-11-22T02:37:56.838Z,99.90
2017-11-22T02:40:24.422Z,99.90
2017-11-22T02:42:51.987Z,99.90
2017-11-22T02:45:19.585Z,99.90
2017-11-22T02:47:47.908Z,99.90
2017-11-22T02:50:15.515Z,99.90
2017-11-22T02:52:43.111Z,99.90
2017-11-22T02:55:10.686Z,99.90
2017-11-22T02:57:38.273Z,99.90
2017-11-22T03:00:06.057Z,99.90
2017-11-22T03:02:33.628Z,99.90
2017-11-22T03:05:01.228Z,99.90
2017-11-22T03:07:29.564Z,99.90
2017-11-22T03:09:57.150Z,99.90
2017-11-22T03:12:24.723Z,99.90
2017-11-22T03:14:52.284Z,99.90
2017-11-22T03:17:19.864Z,99.90
2017-11-22T03:19:47.445Z,99.90
2017-11-22T03:22:15.035Z,99.90
2017-11-22T03:24:42.615Z,99.90
2017-11-22T03:27:10.149Z,99.90
2017-11-22T03:29:37.705Z,99.90
2017-11-22T03:32:05.274Z,99.90
2017-11-22T03:34:32.900Z,99.90
2017-11-22T03:37:00.504Z,99.90
2017-11-22T03:39:28.077Z,99.90
2017-11-22T03:41:55.668Z,99.90
2017-11-22T03:44:23.282Z,99.90
2017-11-22T03:46:51.629Z,99.90
2017-11-22T03:49:19.188Z,99.90
2017-11-22T03:51:52.469Z,99.90
2017-11-22T03:54:20.071Z,99.90
2017-11-22T03:56:47.622Z,99.90
2017-11-22T03:59:15.207Z,99.90
2017-11-22T04:01:44.628Z,99.90
2017-11-22T04:04:12.955Z,99.90
2017-11-22T04:06:40.506Z,99.90
2017-11-22T04:09:08.105Z,99.90
2017-11-22T04:11:36.728Z,99.90
2017-11-22T04:14:05.073Z,99.90
2017-11-22T04:16:32.610Z,99.90
2017-11-22T04:19:05.845Z,99.90
2017-11-22T04:21:33.408Z,99.90
2017-11-22T04:24:00.974Z,99.90
2017-11-22T04:26:28.575Z,99.90
2017-11-22T04:28:56.142Z,99.90
2017-11-22T04:31:23.706Z,99.90
2017-11-22T04:33:51.295Z,99.90
2017-11-22T04:36:18.873Z,99.90
2017-11-22T04:38:46.452Z,99.90
2017-11-22T04:41:14.033Z,99.90
2017-11-22T04:43:41.578Z,99.90
2017-11-22T04:46:09.200Z,99.90
2017-11-22T04:48:37.524Z,99.90
2017-11-22T04:51:05.116Z,99.90
2017-11-22T04:53:32.708Z,99.90
2017-11-22T04:56:00.308Z,99.90
2017-11-22T04:58:28.150Z,99.90
2017-11-22T05:00:55.794Z,99.90
2017-11-22T05:03:23.395Z,99.90
2017-11-22T05:05:50.997Z,99.90
2017-11-22T05:08:18.555Z,99.90
2017-11-22T05:10:46.147Z,99.90
2017-11-22T05:13:14.494Z,99.90
2017-11-22T05:15:42.079Z,99.90
2017-11-22T05:18:09.710Z,99.90
2017-11-22T05:20:37.273Z,99.90
2017-11-22T05:23:04.843Z,99.90
2017-11-22T05:25:32.434Z,99.90
2017-11-22T05:28:00.039Z,99.90
2017-11-22T05:30:28.686Z,99.90
2017-11-22T05:32:57.061Z,99.90
2017-11-22T05:35:24.616Z,99.90
2017-11-22T05:37:52.219Z,99.90
2017-11-22T05:40:19.792Z,99.90
2017-11-22T05:42:47.396Z,99.90
2017-11-22T05:45:15.002Z,99.90
2017-11-22T05:47:42.554Z,99.90
2017-11-22T05:50:10.144Z,99.90
2017-11-22T05:52:37.741Z,99.90
2017-11-22T05:55:05.321Z,99.90
2017-11-22T05:57:32.920Z,99.90
2017-11-22T06:00:00.491Z,99.90
2017-11-22T06:02:28.410Z,99.90
2017-11-22T06:04:56.762Z,99.90
2017-11-22T06:07:24.323Z,99.90
2017-11-22T06:09:51.874Z,99.90
2017-11-22T06:12:19.474Z,99.90
2017-11-22T06:14:47.778Z,99.90
2017-11-22T06:17:15.372Z,99.90
2017-11-22T06:19:42.948Z,99.90
2017-11-22T06:22:10.525Z,99.90
2017-11-22T06:24:38.121Z,99.90
2017-11-22T06:27:06.467Z,99.90
2017-11-22T06:29:36.878Z,99.90
2017-11-22T06:32:04.672Z,99.90
2017-11-22T06:34:32.287Z,99.90
2017-11-22T06:36:59.910Z,99.90
2017-11-22T06:39:27.521Z,99.90
2017-11-22T06:41:55.102Z,99.90
2017-11-22T06:44:22.692Z,99.90
2017-11-22T06:46:50.322Z,99.90
2017-11-22T06:49:17.900Z,99.90
2017-11-22T06:51:45.488Z,99.90
2017-11-22T06:54:13.083Z,99.90
2017-11-22T06:56:41.433Z,99.90
2017-11-22T06:59:09.019Z,99.90
2017-11-22T07:01:36.561Z,99.90
2017-11-22T07:04:04.154Z,99.90
2017-11-22T07:06:31.719Z,99.90
2017-11-22T07:08:59.287Z,99.90
2017-11-22T07:11:27.794Z,99.90
2017-11-22T07:13:56.280Z,99.90
2017-11-22T07:16:26.876Z,99.90
2017-11-22T07:18:54.448Z,99.90
2017-11-22T07:21:22.087Z,99.90
2017-11-22T07:23:49.796Z,99.90
2017-11-22T07:26:19.430Z,99.90
2017-11-22T07:28:47.116Z,99.90
2017-11-22T07:31:14.689Z,99.90
2017-11-22T07:33:42.372Z,99.90
2017-11-22T07:36:15.785Z,99.90
2017-11-22T07:38:43.393Z,99.90
2017-11-22T07:41:11.022Z,99.90
2017-11-22T07:43:38.758Z,99.90
2017-11-22T07:46:09.398Z,99.90
2017-11-22T07:48:37.058Z,99.90
2017-11-22T07:51:10.402Z,99.90
2017-11-22T07:53:38.188Z,99.90
2017-11-22T07:56:06.609Z,99.90
2017-11-22T07:58:36.460Z,99.90
2017-11-22T08:01:04.986Z,99.90
2017-11-22T08:03:35.391Z,99.90
2017-11-22T08:06:04.112Z,98.70
2017-11-22T08:08:31.849Z,98.90
2017-11-22T08:10:59.547Z,96.10
2017-11-22T08:13:27.385Z,94.80
2017-11-22T08:15:55.850Z,93.40
2017-11-22T08:18:23.658Z,93.30
2017-11-22T08:20:57.968Z,93.20
2017-11-22T08:23:26.557Z,91.80
2017-11-22T08:25:55.243Z,91.60
2017-11-22T08:28:23.659Z,92.30
2017-11-22T08:30:51.357Z,92.10
2017-11-22T08:33:19.109Z,93.10
2017-11-22T08:35:46.709Z,94.80
2017-11-22T08:38:15.393Z,93.30
2017-11-22T08:40:43.064Z,95.20
2017-11-22T08:43:16.124Z,94.60
2017-11-22T08:45:43.822Z,95.80
2017-11-22T08:48:12.233Z,94.70
2017-11-22T08:50:40.661Z,95.00
2017-11-22T08:53:08.361Z,95.00
2017-11-22T08:55:41.831Z,95.40
2017-11-22T08:58:15.219Z,95.10
2017-11-22T09:00:42.906Z,95.70
2017-11-22T09:03:14.917Z,95.90
2017-11-22T09:05:48.699Z,95.60
2017-11-22T09:08:16.301Z,95.70
2017-11-22T09:10:44.149Z,95.90
2017-11-22T09:13:18.201Z,94.20
2017-11-22T09:15:47.789Z,95.50
2017-11-22T09:18:21.105Z,95.30
2017-11-22T09:20:48.659Z,94.40
2017-11-22T09:23:16.272Z,94.20
2017-11-22T09:25:43.887Z,93.60
2017-11-22T09:28:11.685Z,94.10
2017-11-22T09:30:45.149Z,92.90
2017-11-22T09:33:12.785Z,92.90
2017-11-22T09:35:40.394Z,92.80
2017-11-22T09:38:08.004Z,92.20
2017-11-22T09:40:35.596Z,92.00
2017-11-22T09:43:03.279Z,91.20
2017-11-22T09:45:30.860Z,91.50
2017-11-22T09:47:58.501Z,91.60
2017-11-22T09:50:26.134Z,91.90
2017-11-22T09:52:54.607Z,91.40
2017-11-22T09:55:22.273Z,91.40
2017-11-22T09:57:49.861Z,92.50
2017-11-22T10:00:17.423Z,91.50
2017-11-22T10:02:45.980Z,91.60
2017-11-22T10:05:14.811Z,91.20
2017-11-22T10:07:42.444Z,91.30
2017-11-22T10:10:10.041Z,90.60
2017-11-22T10:12:39.544Z,90.20
2017-11-22T10:15:07.231Z,90.30
2017-11-22T10:17:35.641Z,91.10
2017-11-22T10:20:04.184Z,91.00
2017-11-22T10:22:37.336Z,90.40
2017-11-22T10:25:10.713Z,89.50
2017-11-22T10:27:43.199Z,88.00
2017-11-22T10:30:13.625Z,90.40
2017-11-22T10:32:46.770Z,87.20
2017-11-22T10:35:14.391Z,88.50
2017-11-22T10:37:41.957Z,88.60
2017-11-22T10:40:09.576Z,89.70
2017-11-22T10:42:37.163Z,87.10
2017-11-22T10:45:05.503Z,87.60
2017-11-22T10:47:33.141Z,87.60
2017-11-22T10:50:00.752Z,87.90
2017-11-22T10:52:28.366Z,88.30
2017-11-22T10:54:55.981Z,85.80
2017-11-22T10:57:24.872Z,84.20
2017-11-22T10:59:52.468Z,84.10
2017-11-22T11:02:21.099Z,85.40
2017-11-22T11:04:48.694Z,85.40
2017-11-22T11:07:16.292Z,87.20
2017-11-22T11:09:43.923Z,85.00
2017-11-22T11:12:11.547Z,84.00
2017-11-22T11:14:39.104Z,82.70
2017-11-22T11:17:06.748Z,82.20
2017-11-22T11:19:34.372Z,83.50
2017-11-22T11:22:01.927Z,83.40
2017-11-22T11:24:29.517Z,81.50
2017-11-22T11:26:57.125Z,81.30
2017-11-22T11:29:24.741Z,81.30
2017-11-22T11:31:52.314Z,82.00
2017-11-22T11:34:19.931Z,82.10
2017-11-22T11:36:47.586Z,80.10
2017-11-22T11:39:15.372Z,82.40
2017-11-22T11:41:43.022Z,81.00
2017-11-22T11:44:11.124Z,82.40
2017-11-22T11:46:38.766Z,82.30
2017-11-22T11:49:06.339Z,81.00
2017-11-22T11:51:33.908Z,78.50
2017-11-22T11:54:01.512Z,78.40
2017-11-22T11:56:30.138Z,73.80
2017-11-22T11:58:58.003Z,68.10
2017-11-22T12:01:26.983Z,66.10
2017-11-22T12:03:55.635Z,60.70
2017-11-22T12:06:25.079Z,60.60
2017-11-22T12:08:53.482Z,57.90
2017-11-22T12:11:21.823Z,59.40
2017-11-22T12:13:49.399Z,59.40
2017-11-22T12:16:17.017Z,59.90
2017-11-22T12:18:44.634Z,58.80
2017-11-22T12:21:13.950Z,58.00
2017-11-22T12:23:41.671Z,58.10
2017-11-22T12:26:09.228Z,57.40
2017-11-22T12:28:36.810Z,56.60
2017-11-22T12:31:04.381Z,56.30
2017-11-22T12:33:32.273Z,56.10
2017-11-22T12:36:00.650Z,56.60
2017-11-22T12:38:28.286Z,56.20
2017-11-22T12:40:56.127Z,55.30
2017-11-22T12:43:24.536Z,55.10
2017-11-22T12:45:52.106Z,55.00
2017-11-22T12:48:19.668Z,54.60
2017-11-22T12:50:47.284Z,55.30
2017-11-22T12:53:14.860Z,52.30
2017-11-22T12:55:43.248Z,54.50
2017-11-22T12:58:12.451Z,54.20
2017-11-22T13:00:40.028Z,54.10
2017-11-22T13:03:07.605Z,53.70
2017-11-22T13:05:35.200Z,54.00
2017-11-22T13:08:02.761Z,53.90
2017-11-22T13:10:33.002Z,54.20
2017-11-22T13:13:00.601Z,53.70
2017-11-22T13:15:28.954Z,54.60
2017-11-22T13:17:57.576Z,54.40
2017-11-22T13:20:25.986Z,52.00
2017-11-22T13:22:53.551Z,52.00
2017-11-22T13:25:21.127Z,51.20
2017-11-22T13:27:49.476Z,50.30
2017-11-22T13:30:17.816Z,50.70
2017-11-22T13:32:45.425Z,50.50
2017-11-22T13:35:13.796Z,51.40
2017-11-22T13:37:42.192Z,52.30
2017-11-22T13:40:10.548Z,52.70
2017-11-22T13:42:39.902Z,52.70
2017-11-22T13:45:09.343Z,52.90
2017-11-22T13:47:36.931Z,51.30
2017-11-22T13:50:05.295Z,50.20
2017-11-22T13:52:32.862Z,49.70
2017-11-22T13:55:00.428Z,49.60
2017-11-22T13:57:29.025Z,50.50
2017-11-22T13:59:56.594Z,51.00
2017-11-22T14:02:24.171Z,51.00
2017-11-22T14:04:51.776Z,50.50
2017-11-22T14:07:19.402Z,52.60
2017-11-22T14:09:47.853Z,53.50
2017-11-22T14:12:15.427Z,53.50
2017-11-22T14:14:43.047Z,52.90
2017-11-22T14:17:10.692Z,52.00
2017-11-22T14:19:39.080Z,51.50
2017-11-22T14:22:07.657Z,51.00
2017-11-22T14:24:36.108Z,51.20
2017-11-22T14:27:52.762Z,51.20
2017-11-22T14:30:23.428Z,51.30
2017-11-22T14:32:52.610Z,53.00
2017-11-22T14:35:21.038Z,53.60
2017-11-22T14:37:48.620Z,53.70
2017-11-22T14:40:16.999Z,57.20
2017-11-22T14:42:45.348Z,58.00
2017-11-22T14:45:13.039Z,58.00
2017-11-22T14:47:40.636Z,59.60
2017-11-22T14:50:08.302Z,59.00
2017-11-22T14:52:35.857Z,61.30
2017-11-22T14:55:04.229Z,63.10
2017-11-22T14:57:32.620Z,66.00
2017-11-22T15:00:00.972Z,67.00
2017-11-22T15:02:28.569Z,67.00
2017-11-22T15:04:56.151Z,69.40
2017-11-22T15:07:23.740Z,71.60
2017-11-22T15:09:51.388Z,73.80
2017-11-22T15:12:18.947Z,76.00
2017-11-22T15:14:46.527Z,79.60
2017-11-22T15:17:14.248Z,81.50
2017-11-22T15:19:41.808Z,87.60
2017-11-22T15:22:10.189Z,99.40
2017-11-22T15:24:37.794Z,99.40
2017-11-22T15:27:05.471Z,99.90
2017-11-22T15:29:34.750Z,99.90
2017-11-22T15:32:02.342Z,99.90
2017-11-22T15:34:30.180Z,99.90
2017-11-22T15:36:58.610Z,99.90
2017-11-22T15:39:26.202Z,99.90
2017-11-22T15:41:53.754Z,99.90
2017-11-22T15:44:21.324Z,99.90
2017-11-22T15:46:48.895Z,99.90
2017-11-22T15:49:16.486Z,99.90
2017-11-22T15:51:44.069Z,99.90
2017-11-22T15:54:11.637Z,99.90
2017-11-22T15:56:39.229Z,99.90
2017-11-22T15:59:06.867Z,99.90
2017-11-22T16:01:34.460Z,99.90
2017-11-22T16:04:02.085Z,99.90
2017-11-22T16:06:29.658Z,99.90
2017-11-22T16:08:57.237Z,99.90
2017-11-22T16:11:24.838Z,99.90
2017-11-22T16:13:52.449Z,99.90
2017-11-22T16:16:20.033Z,99.90
2017-11-22T16:18:47.581Z,99.90
2017-11-22T16:21:15.201Z,99.90
2017-11-22T16:23:42.784Z,99.90
2017-11-22T16:26:10.371Z,99.90
2017-11-22T16:28:37.994Z,99.90
2017-11-22T16:31:05.545Z,99.90
2017-11-22T16:33:33.139Z,99.90
2017-11-22T16:36:00.773Z,99.90
2017-11-22T16:38:28.387Z,99.90
2017-11-22T16:40:56.764Z,99.90
2017-11-22T16:43:25.194Z,99.90
2017-11-22T16:45:52.813Z,99.90
2017-11-22T16:48:20.466Z,99.90
2017-11-22T16:50:48.059Z,99.90
2017-11-22T16:53:15.646Z,99.90
2017-11-22T16:55:43.205Z,99.90
2017-11-22T16:58:10.836Z,99.90
2017-11-22T17:00:38.852Z,99.90
2017-11-22T17:03:06.568Z,99.90
2017-11-22T17:05:34.948Z,99.90
2017-11-22T17:08:02.594Z,99.90
2017-11-22T17:10:30.227Z,99.90
2017-11-22T17:12:57.814Z,99.90
2017-11-22T17:15:25.412Z,99.90
2017-11-22T17:17:53.046Z,99.90
2017-11-22T17:20:20.639Z,99.90
2017-11-22T17:22:48.279Z,99.90
2017-11-22T17:25:16.695Z,99.90
2017-11-22T17:27:44.618Z,99.90
2017-11-22T17:30:12.281Z,99.90
2017-11-22T17:32:43.342Z,99.90
2017-11-22T17:35:12.658Z,99.90
2017-11-22T17:37:40.276Z,99.90
2017-11-22T17:40:08.678Z,99.90
2017-11-22T17:42:36.698Z,99.90
2017-11-22T17:45:04.335Z,99.90
2017-11-22T17:47:31.987Z,99.90
2017-11-22T17:49:59.634Z,99.90
2017-11-22T17:52:28.888Z,99.90
2017-11-22T17:54:57.222Z,99.90
2017-11-22T17:57:25.089Z,99.90
2017-11-22T17:59:52.820Z,99.90
2017-11-22T18:02:21.300Z,99.90
2017-11-22T18:04:49.447Z,99.90
2017-11-22T18:07:17.748Z,99.90
2017-11-22T18:09:45.492Z,99.90
2017-11-22T18:12:13.078Z,99.90
2017-11-22T18:14:40.763Z,99.90
2017-11-22T18:17:08.397Z,99.90
2017-11-22T18:19:35.979Z,99.90
2017-11-22T18:22:03.591Z,99.90
2017-11-22T18:24:31.146Z,99.90
2017-11-22T18:26:58.776Z,99.90
2017-11-22T18:29:26.413Z,99.90
2017-11-22T18:31:54.112Z,99.90
2017-11-22T18:34:21.701Z,99.90
2017-11-22T18:36:49.328Z,99.90
2017-11-22T18:39:16.970Z,99.90
2017-11-22T18:41:45.458Z,99.90
2017-11-22T18:44:13.187Z,99.90
2017-11-22T18:46:40.836Z,99.90
2017-11-22T18:49:08.563Z,99.90
2017-11-22T18:51:36.333Z,99.90
2017-11-22T18:54:12.050Z,99.90
2017-11-22T18:56:39.942Z,99.90
2017-11-22T18:59:07.657Z,99.90
2017-11-22T19:01:35.584Z,99.90
2017-11-22T19:04:03.148Z,99.90
2017-11-22T19:06:30.897Z,99.90
2017-11-22T19:08:58.564Z,99.90
2017-11-22T19:11:26.790Z,99.90
2017-11-22T19:13:54.471Z,99.90
2017-11-22T19:16:22.773Z,99.90
2017-11-22T19:18:50.482Z,99.90
2017-11-22T19:21:18.903Z,99.90
2017-11-22T19:23:46.611Z,99.90
2017-11-22T19:26:14.289Z,99.90
2017-11-22T19:28:41.842Z,99.90
2017-11-22T19:31:09.437Z,99.90
2017-11-22T19:33:38.172Z,99.90
2017-11-22T19:36:05.835Z,99.90
2017-11-22T19:38:33.695Z,99.90
2017-11-22T19:41:01.333Z,99.90
2017-11-22T19:43:29.901Z,99.90
2017-11-22T19:45:57.565Z,99.90
2017-11-22T19:48:25.445Z,99.90
2017-11-22T19:50:53.044Z,99.90
2017-11-22T19:53:21.560Z,99.90
2017-11-22T19:55:49.339Z,99.90
2017-11-22T19:58:17.068Z,99.90
2017-11-22T20:00:44.764Z,99.90
2017-11-22T20:03:15.227Z,99.90
2017-11-22T20:05:42.940Z,99.90
2017-11-22T20:08:22.324Z,99.90
2017-11-22T20:10:49.911Z,99.90
2017-11-22T20:13:18.246Z,99.90
2017-11-22T20:15:47.061Z,99.90
2017-11-22T20:18:19.546Z,99.90
2017-11-22T20:20:47.304Z,99.90
2017-11-22T20:23:15.058Z,99.90
2017-11-22T20:25:42.963Z,99.90
2017-11-22T20:28:11.526Z,99.90
2017-11-22T20:30:39.397Z,99.90
2017-11-22T20:33:07.027Z,99.90
2017-11-22T20:35:34.589Z,99.90
2017-11-22T20:38:02.225Z,99.90
2017-11-22T20:40:30.599Z,99.90
2017-11-22T20:42:58.289Z,99.90
2017-11-22T20:45:25.857Z,99.90
2017-11-22T20:47:53.414Z,99.90
2017-11-22T20:50:21.785Z,99.90
2017-11-22T20:52:49.401Z,99.90
2017-11-22T20:55:16.974Z,99.90
2017-11-22T20:57:44.541Z,99.90
2017-11-22T21:00:12.089Z,99.90
2017-11-22T21:02:39.666Z,99.90
2017-11-22T21:05:07.362Z,99.90
2017-11-22T21:07:34.945Z,99.90
2017-11-22T21:10:03.325Z,99.90
2017-11-22T21:12:31.753Z,99.90
2017-11-22T21:14:59.344Z,99.90
2017-11-22T21:17:27.471Z,99.90
2017-11-22T21:19:55.014Z,99.90
2017-11-22T21:22:23.381Z,99.90
2017-11-22T21:24:51.093Z,99.90
2017-11-22T21:27:18.992Z,99.90
2017-11-22T21:29:48.890Z,99.90
2017-11-22T21:32:17.270Z,99.90
2017-11-22T21:34:45.371Z,99.90
2017-11-22T21:37:13.220Z,99.90
2017-11-22T21:39:41.373Z,99.90
2017-11-22T21:42:10.374Z,99.90
2017-11-22T21:44:38.536Z,99.90
2017-11-22T21:47:07.096Z,99.90
2017-11-22T21:49:34.754Z,99.90
2017-11-22T21:52:02.354Z,99.90
2017-11-22T21:54:29.994Z,99.90
2017-11-22T21:56:57.741Z,99.90
2017-11-22T21:59:25.317Z,99.90
2017-11-22T22:01:52.964Z,99.90
2017-11-22T22:04:22.521Z,99.90
2017-11-22T22:06:50.931Z,99.90
2017-11-22T22:09:18.759Z,99.90
2017-11-22T22:11:47.549Z,99.90
2017-11-22T22:14:15.275Z,99.90
2017-11-22T22:16:43.159Z,99.90
2017-11-22T22:19:10.879Z,99.90
2017-11-22T22:21:38.462Z,99.90
2017-11-22T22:24:06.809Z,99.90
2017-11-22T22:26:34.409Z,99.90
2017-11-22T22:29:02.779Z,99.90
2017-11-22T22:31:30.373Z,99.90
2017-11-22T22:33:58.712Z,99.90
2017-11-22T22:36:26.291Z,99.90
2017-11-22T22:38:54.412Z,99.90
2017-11-22T22:41:22.089Z,99.90
2017-11-22T22:43:49.667Z,99.90
2017-11-22T22:46:17.228Z,99.90
2017-11-22T22:48:44.810Z,99.90
2017-11-22T22:51:12.399Z,99.90
2017-11-22T22:53:39.963Z,99.90
2017-11-22T22:56:07.596Z,99.90
2017-11-22T22:58:35.525Z,99.90
2017-11-22T23:01:03.146Z,99.90
2017-11-22T23:03:30.761Z,99.90
2017-11-22T23:05:58.783Z,99.90
2017-11-22T23:08:26.438Z,99.90
2017-11-22T23:10:53.996Z,99.90
2017-11-22T23:13:21.570Z,99.90
2017-11-22T23:15:49.160Z,99.90
2017-11-22T23:18:16.758Z,99.90
2017-11-22T23:20:45.304Z,99.90
2017-11-22T23:23:12.829Z,99.90
2017-11-22T23:25:40.437Z,99.90
2017-11-22T23:28:08.037Z,99.90
2017-11-22T23:30:36.375Z,99.90
2017-11-22T23:33:03.965Z,99.90
2017-11-22T23:35:31.544Z,99.90
2017-11-22T23:37:59.142Z,99.90
2017-11-22T23:40:26.703Z,99.90
2017-11-22T23:42:55.332Z,99.90
2017-11-22T23:45:25.197Z,99.90
2017-11-22T23:47:52.875Z,99.90
2017-11-22T23:50:20.462Z,99.90
2017-11-22T23:52:48.101Z,99.90
2017-11-22T23:55:16.397Z,99.90
2017-11-22T23:57:44.095Z,99.90
